Time;durP1;ratioP1;P1;durP2;ratioP2;P2;SDS_P1;SDS_P2;PMS_P1;PMS_P2;Temp;Humidity;BMP_temperature;BMP_pressure;BME280_temperature;BME280_humidity;BME280_pressure;Samples;Min_cycle;Max_cycle;Signal;HPM_P1;HPM_P2
2023/02/22 00:02:27;;;;;;;;;;;21.40;58.70;;;;;;1545029;76;1144;-58
2023/02/22 00:03:43;;;;;;;;;;;21.40;58.50;;;;;;1522053;76;1395;-61
2023/02/22 00:05:52;;;;;;;;;;;21.40;58.40;;;;;;1550703;76;684;-58
2023/02/22 00:07:55;;;;;;;;;;;21.50;58.10;;;;;;1537774;76;1821;-59
2023/02/22 00:09:56;;;;;;;;;;;21.50;58.10;;;;;;1535758;76;1842;-60
2023/02/22 00:11:58;;;;;;;;;;;21.50;57.90;;;;;;1540079;76;1956;-59
2023/02/22 00:14:01;;;;;;;;;;;21.50;57.70;;;;;;1537966;76;713;-59
2023/02/22 00:16:03;;;;;;;;;;;21.60;57.70;;;;;;1535957;76;966;-60
2023/02/22 00:18:05;;;;;;;;;;;21.60;57.70;;;;;;1536285;76;676;-59
2023/02/22 00:20:09;;;;;;;;;;;21.60;57.80;;;;;;1540237;76;1141;-59
2023/02/22 00:22:10;;;;;;;;;;;21.60;57.80;;;;;;1543350;76;1567;-59
2023/02/22 00:24:24;;;;;;;;;;;21.50;57.80;;;;;;1546235;76;742;-59
2023/02/22 00:26:26;;;;;;;;;;;21.50;57.90;;;;;;1542598;76;773;-58
2023/02/22 00:28:29;;;;;;;;;;;21.50;58.00;;;;;;1536194;76;662;-58
2023/02/22 00:30:32;;;;;;;;;;;21.50;57.90;;;;;;1542391;76;1148;-59
2023/02/22 00:32:34;;;;;;;;;;;21.50;57.80;;;;;;1536200;76;1928;-59
2023/02/22 00:34:36;;;;;;;;;;;21.50;57.90;;;;;;1543850;76;655;-57
2023/02/22 00:36:38;;;;;;;;;;;21.50;57.90;;;;;;1540637;76;1564;-61
2023/02/22 00:38:40;;;;;;;;;;;21.50;57.90;;;;;;1534474;76;669;-60
2023/02/22 00:40:42;;;;;;;;;;;21.50;58.00;;;;;;1543782;76;1150;-59
2023/02/22 00:42:45;;;;;;;;;;;21.50;57.90;;;;;;1542200;76;670;-58
2023/02/22 00:44:47;;;;;;;;;;;21.50;57.90;;;;;;1537902;76;690;-59
2023/02/22 00:46:49;;;;;;;;;;;21.50;57.90;;;;;;1533414;76;711;-58
2023/02/22 00:48:50;;;;;;;;;;;21.50;58.00;;;;;;1549054;76;736;-59
2023/02/22 00:50:54;;;;;;;;;;;21.50;58.00;;;;;;1537007;76;1549;-60
2023/02/22 00:52:55;;;;;;;;;;;21.50;57.90;;;;;;1538886;76;1936;-60
2023/02/22 00:54:58;;;;;;;;;;;21.50;57.90;;;;;;1537861;76;686;-58
2023/02/22 00:57:00;;;;;;;;;;;21.50;57.90;;;;;;1536307;76;683;-58
2023/02/22 00:59:03;;;;;;;;;;;21.50;58.00;;;;;;1540280;76;753;-57
2023/02/22 01:01:05;;;;;;;;;;;21.50;58.00;;;;;;1538167;76;1161;-59
2023/02/22 01:03:07;;;;;;;;;;;21.50;58.10;;;;;;1538334;76;722;-58
2023/02/22 01:05:11;;;;;;;;;;;21.50;58.60;;;;;;1537862;76;1669;-58
2023/02/22 01:07:13;;;;;;;;;;;21.50;58.50;;;;;;1552739;76;641;-58
2023/02/22 01:09:15;;;;;;;;;;;21.50;58.10;;;;;;1537184;76;747;-59
2023/02/22 01:11:17;;;;;;;;;;;21.60;58.50;;;;;;1543401;76;1138;-58
2023/02/22 01:13:19;;;;;;;;;;;21.60;58.00;;;;;;1544833;76;1950;-59
2023/02/22 01:15:22;;;;;;;;;;;21.60;57.90;;;;;;1541389;76;733;-60
2023/02/22 01:17:24;;;;;;;;;;;21.60;58.00;;;;;;1539618;76;761;-58
2023/02/22 01:19:26;;;;;;;;;;;21.60;57.90;;;;;;1547773;76;1655;-59
2023/02/22 01:21:28;;;;;;;;;;;21.60;57.80;;;;;;1537220;76;1139;-59
2023/02/22 01:23:30;;;;;;;;;;;21.50;57.80;;;;;;1543497;76;688;-60
2023/02/22 01:25:32;;;;;;;;;;;21.60;57.80;;;;;;1546230;76;763;-58
2023/02/22 01:27:34;;;;;;;;;;;21.60;57.80;;;;;;1538539;76;1056;-59
2023/02/22 01:29:36;;;;;;;;;;;21.60;57.80;;;;;;1534201;76;702;-58
2023/02/22 01:31:37;;;;;;;;;;;21.60;57.70;;;;;;1542838;76;1937;-59
2023/02/22 01:33:40;;;;;;;;;;;21.60;57.60;;;;;;1543726;76;684;-58
2023/02/22 01:35:42;;;;;;;;;;;21.60;57.70;;;;;;1546193;76;739;-58
2023/02/22 01:37:44;;;;;;;;;;;21.60;57.70;;;;;;1546032;76;607;-59
2023/02/22 01:39:46;;;;;;;;;;;21.60;57.60;;;;;;1537875;76;693;-57
2023/02/22 01:41:48;;;;;;;;;;;21.60;57.60;;;;;;1548453;76;1107;-58
2023/02/22 01:43:49;;;;;;;;;;;21.50;57.70;;;;;;1533492;76;755;-58
2023/02/22 01:45:53;;;;;;;;;;;21.60;57.80;;;;;;1536004;76;1526;-59
2023/02/22 01:47:57;;;;;;;;;;;21.60;57.80;;;;;;1532174;76;678;-59
2023/02/22 01:49:59;;;;;;;;;;;21.60;57.90;;;;;;1505575;76;1045;-59
2023/02/22 01:52:01;;;;;;;;;;;21.50;58.50;;;;;;1545281;76;1956;-57
2023/02/22 01:54:05;;;;;;;;;;;21.50;58.50;;;;;;1534314;76;695;-58
2023/02/22 01:56:07;;;;;;;;;;;21.40;58.50;;;;;;1541811;76;690;-59
2023/02/22 01:58:09;;;;;;;;;;;21.40;58.70;;;;;;1536149;76;745;-58
2023/02/22 02:00:13;;;;;;;;;;;21.40;58.60;;;;;;1538399;76;1300;-57
2023/02/22 02:02:15;;;;;;;;;;;21.40;58.70;;;;;;1537114;76;715;-58
2023/02/22 02:04:19;;;;;;;;;;;21.40;58.90;;;;;;1538972;76;628;-57
2023/02/22 02:06:21;;;;;;;;;;;21.30;58.80;;;;;;1547811;76;800;-59
2023/02/22 02:08:24;;;;;;;;;;;21.40;58.70;;;;;;1540259;76;777;-58
2023/02/22 02:10:26;;;;;;;;;;;21.40;58.60;;;;;;1550332;76;1756;-58
2023/02/22 02:12:29;;;;;;;;;;;21.40;58.50;;;;;;1530538;77;1966;-59
2023/02/22 02:14:31;;;;;;;;;;;21.50;58.70;;;;;;1538142;76;1374;-59
2023/02/22 02:16:40;;;;;;;;;;;21.30;58.60;;;;;;1538711;76;781;-59
2023/02/22 02:18:42;;;;;;;;;;;21.40;58.70;;;;;;1535868;76;665;-59
2023/02/22 02:20:45;;;;;;;;;;;21.40;58.90;;;;;;1544226;76;1160;-60
2023/02/22 02:22:49;;;;;;;;;;;21.30;58.70;;;;;;1544550;76;2012;-58
2023/02/22 02:24:58;;;;;;;;;;;21.40;58.70;;;;;;1538275;76;1900;-59
2023/02/22 02:27:14;;;;;;;;;;;21.40;58.60;;;;;;1544294;76;815;-59
2023/02/22 02:29:29;;;;;;;;;;;21.40;58.50;;;;;;1535909;76;1341;-58
2023/02/22 02:31:39;;;;;;;;;;;21.40;58.50;;;;;;1531295;76;1833;-61
2023/02/22 02:33:44;;;;;;;;;;;21.40;58.60;;;;;;1540577;76;1943;-59
2023/02/22 02:35:48;;;;;;;;;;;21.40;58.50;;;;;;1547465;76;686;-58
2023/02/22 02:38:00;;;;;;;;;;;21.40;58.60;;;;;;1544886;76;1886;-62
2023/02/22 02:40:16;;;;;;;;;;;21.40;58.70;;;;;;1533631;76;1806;-58
2023/02/22 02:42:16;;;;;;;;;;;21.40;58.80;;;;;;1532639;76;1712;-59
2023/02/22 02:44:26;;;;;;;;;;;21.40;59.00;;;;;;1536166;76;673;-60
2023/02/22 02:46:29;;;;;;;;;;;21.20;58.90;;;;;;1546876;76;1893;-58
2023/02/22 02:48:32;;;;;;;;;;;21.20;59.30;;;;;;1547099;76;769;-57
2023/02/22 02:50:35;;;;;;;;;;;21.20;59.00;;;;;;1537632;76;1131;-60
2023/02/22 02:52:37;;;;;;;;;;;21.20;59.00;;;;;;1538001;76;1928;-58
2023/02/22 02:54:39;;;;;;;;;;;21.20;58.90;;;;;;1542584;76;692;-59
2023/02/22 02:56:45;;;;;;;;;;;21.30;59.00;;;;;;1538890;76;1559;-60
2023/02/22 02:58:47;;;;;;;;;;;21.30;58.90;;;;;;1533802;76;1297;-61
2023/02/22 03:00:51;;;;;;;;;;;21.30;58.90;;;;;;1532262;76;1115;-61
2023/02/22 03:03:07;;;;;;;;;;;21.30;58.90;;;;;;1539013;76;672;-61
2023/02/22 03:05:10;;;;;;;;;;;21.40;58.80;;;;;;1535414;76;1866;-62
2023/02/22 03:07:33;;;;;;;;;;;21.30;58.70;;;;;;1542154;76;897;-61
2023/02/22 03:09:39;;;;;;;;;;;21.30;58.60;;;;;;1535274;76;627;-61
2023/02/22 03:11:49;;;;;;;;;;;21.30;58.70;;;;;;1550014;76;1590;-60
2023/02/22 03:13:54;;;;;;;;;;;21.30;58.60;;;;;;1548686;76;1932;-60
2023/02/22 03:16:01;;;;;;;;;;;21.30;58.90;;;;;;1548718;76;681;-61
2023/02/22 03:18:05;;;;;;;;;;;21.30;58.90;;;;;;1540882;76;1964;-61
2023/02/22 03:20:09;;;;;;;;;;;21.30;58.80;;;;;;1538254;76;1118;-61
2023/02/22 03:22:14;;;;;;;;;;;21.30;58.80;;;;;;1541095;76;1761;-62
2023/02/22 03:24:18;;;;;;;;;;;21.30;58.70;;;;;;1538723;76;1601;-60
2023/02/22 03:26:23;;;;;;;;;;;21.30;58.60;;;;;;1533849;76;804;-60
2023/02/22 03:28:25;;;;;;;;;;;21.30;58.60;;;;;;1536751;76;1760;-60
2023/02/22 03:30:35;;;;;;;;;;;21.40;58.60;;;;;;1543080;76;1156;-61
2023/02/22 03:32:37;;;;;;;;;;;21.40;58.50;;;;;;1536416;76;2244;-60
2023/02/22 03:34:41;;;;;;;;;;;21.40;58.60;;;;;;1536042;76;680;-62
2023/02/22 03:36:45;;;;;;;;;;;21.30;58.60;;;;;;1536405;76;1894;-60
2023/02/22 03:38:46;;;;;;;;;;;21.40;58.60;;;;;;1538106;76;1572;-60
2023/02/22 03:40:49;;;;;;;;;;;21.30;58.50;;;;;;1535674;76;1146;-60
2023/02/22 03:42:53;;;;;;;;;;;21.40;58.50;;;;;;1538138;76;696;-59
2023/02/22 03:44:56;;;;;;;;;;;21.40;58.50;;;;;;1542598;76;693;-60
2023/02/22 03:47:00;;;;;;;;;;;21.40;58.50;;;;;;1537890;76;699;-59
2023/02/22 03:49:04;;;;;;;;;;;21.30;58.50;;;;;;1546103;76;764;-59
2023/02/22 03:51:06;;;;;;;;;;;21.40;58.40;;;;;;1544373;76;1087;-59
2023/02/22 03:53:08;;;;;;;;;;;21.50;58.50;;;;;;1539888;76;1942;-59
2023/02/22 03:55:11;;;;;;;;;;;21.40;58.40;;;;;;1549572;76;754;-60
2023/02/22 03:57:17;;;;;;;;;;;21.40;58.50;;;;;;1541080;76;747;-58
2023/02/22 03:59:24;;;;;;;;;;;21.40;58.50;;;;;;1547337;76;683;-60
2023/02/22 04:01:23;;;;;;;;;;;21.40;58.50;;;;;;1538941;76;1697;-59
2023/02/22 04:03:24;;;;;;;;;;;21.30;58.60;;;;;;1548712;76;655;-59
2023/02/22 04:05:26;;;;;;;;;;;21.40;58.60;;;;;;1541674;76;734;-60
2023/02/22 04:07:28;;;;;;;;;;;21.40;58.70;;;;;;1546423;76;1565;-59
2023/02/22 04:09:31;;;;;;;;;;;21.40;58.70;;;;;;1539555;76;686;-60
2023/02/22 04:11:33;;;;;;;;;;;21.40;58.70;;;;;;1538718;76;1170;-58
2023/02/22 04:13:35;;;;;;;;;;;21.40;58.70;;;;;;1541762;76;1920;-59
2023/02/22 04:15:37;;;;;;;;;;;21.30;58.70;;;;;;1547655;76;741;-60
2023/02/22 04:17:39;;;;;;;;;;;21.30;58.70;;;;;;1546721;76;747;-61
2023/02/22 04:19:42;;;;;;;;;;;21.40;58.70;;;;;;1546187;76;655;-59
2023/02/22 04:21:44;;;;;;;;;;;21.40;58.70;;;;;;1543068;76;1633;-59
2023/02/22 04:23:46;;;;;;;;;;;21.30;59.40;;;;;;1544363;76;687;-60
2023/02/22 04:25:48;;;;;;;;;;;21.30;59.00;;;;;;1542949;76;706;-59
2023/02/22 04:27:49;;;;;;;;;;;21.30;59.00;;;;;;1540308;76;788;-60
2023/02/22 04:29:51;;;;;;;;;;;21.40;59.00;;;;;;1541435;76;726;-59
2023/02/22 04:31:53;;;;;;;;;;;21.30;58.90;;;;;;1542014;76;1137;-61
2023/02/22 04:33:55;;;;;;;;;;;21.30;59.00;;;;;;1533548;76;1944;-59
2023/02/22 04:35:58;;;;;;;;;;;21.30;58.90;;;;;;1532209;76;1683;-60
2023/02/22 04:38:00;;;;;;;;;;;21.30;58.90;;;;;;1540148;76;721;-59
2023/02/22 04:40:03;;;;;;;;;;;21.40;58.90;;;;;;1541112;76;667;-60
2023/02/22 04:42:05;;;;;;;;;;;21.30;58.90;;;;;;1543832;76;1920;-61
2023/02/22 04:44:07;;;;;;;;;;;21.20;58.90;;;;;;1540391;76;701;-60
2023/02/22 04:46:09;;;;;;;;;;;21.30;59.00;;;;;;1541443;76;685;-59
2023/02/22 04:48:11;;;;;;;;;;;21.20;58.90;;;;;;1545901;76;700;-59
2023/02/22 04:50:13;;;;;;;;;;;21.30;59.00;;;;;;1539217;76;1589;-61
2023/02/22 04:52:15;;;;;;;;;;;21.20;58.80;;;;;;1549688;76;707;-60
2023/02/22 04:54:17;;;;;;;;;;;21.30;59.00;;;;;;1538383;76;1938;-60
2023/02/22 04:56:19;;;;;;;;;;;21.20;58.90;;;;;;1538825;76;769;-59
2023/02/22 04:58:21;;;;;;;;;;;21.30;58.90;;;;;;1545939;76;660;-60
2023/02/22 05:00:23;;;;;;;;;;;21.20;58.70;;;;;;1540734;76;1150;-59
2023/02/22 05:02:24;;;;;;;;;;;21.20;58.80;;;;;;1542603;76;727;-60
2023/02/22 05:04:26;;;;;;;;;;;21.30;59.00;;;;;;1536991;76;1681;-60
2023/02/22 05:06:28;;;;;;;;;;;21.20;58.90;;;;;;1544626;76;690;-59
2023/02/22 05:08:30;;;;;;;;;;;21.20;58.80;;;;;;1543697;76;659;-61
2023/02/22 05:10:32;;;;;;;;;;;21.30;58.90;;;;;;1540743;76;1083;-59
2023/02/22 05:12:34;;;;;;;;;;;21.30;58.90;;;;;;1537072;76;732;-60
2023/02/22 05:14:36;;;;;;;;;;;21.30;58.90;;;;;;1543124;76;2229;-59
2023/02/22 05:16:38;;;;;;;;;;;21.30;58.90;;;;;;1535304;76;1538;-59
2023/02/22 05:18:40;;;;;;;;;;;21.30;58.90;;;;;;1545015;76;742;-61
2023/02/22 05:20:42;;;;;;;;;;;21.30;58.90;;;;;;1546513;76;1192;-60
2023/02/22 05:22:44;;;;;;;;;;;21.40;58.90;;;;;;1542868;76;730;-60
2023/02/22 05:24:46;;;;;;;;;;;21.40;59.00;;;;;;1539719;76;720;-61
2023/02/22 05:26:50;;;;;;;;;;;21.40;59.00;;;;;;1535814;76;664;-61
2023/02/22 05:28:51;;;;;;;;;;;21.40;59.00;;;;;;1542435;76;821;-60
2023/02/22 05:30:53;;;;;;;;;;;21.40;59.30;;;;;;1539021;76;1331;-60
2023/02/22 05:32:55;;;;;;;;;;;21.40;59.10;;;;;;1542881;76;725;-60
2023/02/22 05:34:57;;;;;;;;;;;21.40;59.00;;;;;;1541286;76;1932;-58
2023/02/22 05:36:59;;;;;;;;;;;21.30;59.00;;;;;;1537708;76;678;-60
2023/02/22 05:39:01;;;;;;;;;;;21.30;58.90;;;;;;1542747;76;737;-58
2023/02/22 05:41:03;;;;;;;;;;;21.30;59.00;;;;;;1543475;76;1150;-59
2023/02/22 05:43:05;;;;;;;;;;;21.30;59.30;;;;;;1541277;76;713;-57
2023/02/22 05:45:08;;;;;;;;;;;21.30;59.60;;;;;;1540803;76;1590;-59
2023/02/22 05:47:09;;;;;;;;;;;21.10;60.40;;;;;;1544932;76;663;-59
2023/02/22 05:49:11;;;;;;;;;;;21.00;60.70;;;;;;1538852;76;680;-59
2023/02/22 05:51:13;;;;;;;;;;;21.00;60.30;;;;;;1547078;76;1146;-59
2023/02/22 05:53:15;;;;;;;;;;;21.10;60.30;;;;;;1538906;76;1930;-59
2023/02/22 05:55:17;;;;;;;;;;;21.10;60.30;;;;;;1536150;76;681;-60
2023/02/22 05:57:19;;;;;;;;;;;21.20;60.00;;;;;;1541320;76;705;-59
2023/02/22 05:59:21;;;;;;;;;;;21.20;59.60;;;;;;1533616;76;1532;-58
2023/02/22 06:01:23;;;;;;;;;;;21.20;59.60;;;;;;1536386;76;1154;-59
2023/02/22 06:03:25;;;;;;;;;;;21.20;59.50;;;;;;1540625;76;796;-61
2023/02/22 06:05:27;;;;;;;;;;;21.30;59.50;;;;;;1540265;76;686;-58
2023/02/22 06:07:29;;;;;;;;;;;21.30;59.40;;;;;;1539336;76;752;-58
2023/02/22 06:09:31;;;;;;;;;;;21.30;59.30;;;;;;1542957;76;685;-58
2023/02/22 06:11:33;;;;;;;;;;;21.30;59.30;;;;;;1542316;76;1137;-58
2023/02/22 06:13:35;;;;;;;;;;;21.30;59.20;;;;;;1544319;76;1947;-57
2023/02/22 06:15:37;;;;;;;;;;;21.20;59.30;;;;;;1534545;76;792;-59
2023/02/22 06:17:40;;;;;;;;;;;21.30;59.40;;;;;;1536656;76;676;-60
2023/02/22 06:19:42;;;;;;;;;;;21.20;59.40;;;;;;1541331;76;895;-60
2023/02/22 06:21:50;;;;;;;;;;;21.20;59.40;;;;;;1540638;76;1128;-58
2023/02/22 06:23:52;;;;;;;;;;;21.20;59.60;;;;;;1538727;76;696;-59
2023/02/22 06:25:54;;;;;;;;;;;21.20;60.00;;;;;;1536593;76;716;-59
2023/02/22 06:27:56;;;;;;;;;;;21.20;59.90;;;;;;1538273;76;1581;-59
2023/02/22 06:29:58;;;;;;;;;;;21.30;59.80;;;;;;1537480;76;704;-58
2023/02/22 06:32:00;;;;;;;;;;;21.20;59.50;;;;;;1535717;76;1127;-56
2023/02/22 06:34:02;;;;;;;;;;;21.20;59.40;;;;;;1541741;76;1931;-61
2023/02/22 06:36:04;;;;;;;;;;;21.20;59.40;;;;;;1534225;76;687;-58
2023/02/22 06:38:06;;;;;;;;;;;21.20;59.40;;;;;;1543241;76;707;-61
2023/02/22 06:40:10;;;;;;;;;;;21.10;59.30;;;;;;1532087;76;1158;-57
2023/02/22 06:42:11;;;;;;;;;;;21.20;59.30;;;;;;1532803;76;1542;-59
2023/02/22 06:44:14;;;;;;;;;;;21.20;59.20;;;;;;1534075;76;748;-59
2023/02/22 06:46:15;;;;;;;;;;;21.20;59.10;;;;;;1538405;76;692;-57
2023/02/22 06:48:17;;;;;;;;;;;21.20;59.10;;;;;;1538416;76;813;-56
2023/02/22 06:50:21;;;;;;;;;;;21.20;59.00;;;;;;1545879;76;1161;-58
2023/02/22 06:52:23;;;;;;;;;;;21.10;59.00;;;;;;1536904;76;2020;-57
2023/02/22 06:54:26;;;;;;;;;;;21.10;59.00;;;;;;1531801;76;1922;-56
2023/02/22 06:56:27;;;;;;;;;;;21.20;58.90;;;;;;1542587;76;1558;-57
2023/02/22 06:58:29;;;;;;;;;;;21.20;58.90;;;;;;1537771;76;734;-58
2023/02/22 07:00:31;;;;;;;;;;;21.10;59.00;;;;;;1536873;76;1141;-57
2023/02/22 07:02:33;;;;;;;;;;;21.10;59.00;;;;;;1546781;76;756;-55
2023/02/22 07:04:35;;;;;;;;;;;21.20;59.00;;;;;;1547508;76;670;-56
2023/02/22 07:06:37;;;;;;;;;;;21.20;59.00;;;;;;1541387;76;725;-57
2023/02/22 07:08:39;;;;;;;;;;;21.20;58.90;;;;;;1541524;76;804;-57
2023/02/22 07:10:41;;;;;;;;;;;21.10;59.00;;;;;;1534633;76;1458;-56
2023/02/22 07:12:43;;;;;;;;;;;21.10;58.90;;;;;;1538356;76;757;-58
2023/02/22 07:14:45;;;;;;;;;;;21.10;58.90;;;;;;1542239;76;1948;-57
2023/02/22 07:16:47;;;;;;;;;;;21.20;58.80;;;;;;1537940;76;695;-58
2023/02/22 07:18:48;;;;;;;;;;;21.10;58.90;;;;;;1543682;76;718;-58
2023/02/22 07:20:50;;;;;;;;;;;21.10;58.90;;;;;;1544407;76;1172;-57
2023/02/22 07:22:52;;;;;;;;;;;21.20;58.80;;;;;;1547628;76;785;-56
2023/02/22 07:24:54;;;;;;;;;;;21.20;58.90;;;;;;1548401;76;1587;-59
2023/02/22 07:26:56;;;;;;;;;;;21.20;58.70;;;;;;1545536;76;698;-58
2023/02/22 07:28:58;;;;;;;;;;;21.10;58.70;;;;;;1544070;76;752;-58
2023/02/22 07:31:00;;;;;;;;;;;21.20;58.70;;;;;;1543295;76;1222;-60
2023/02/22 07:33:03;;;;;;;;;;;21.20;58.70;;;;;;1538344;76;694;-57
2023/02/22 07:35:05;;;;;;;;;;;21.10;58.70;;;;;;1532277;76;1944;-56
2023/02/22 07:37:07;;;;;;;;;;;21.10;58.80;;;;;;1547898;76;695;-57
2023/02/22 07:39:09;;;;;;;;;;;21.20;58.70;;;;;;1538139;76;1557;-57
2023/02/22 07:41:12;;;;;;;;;;;21.10;58.80;;;;;;1533067;76;1150;-56
2023/02/22 07:43:17;;;;;;;;;;;21.10;59.40;;;;;;1539064;76;757;-57
2023/02/22 07:45:19;;;;;;;;;;;21.10;59.40;;;;;;1541121;76;678;-57
2023/02/22 07:47:21;;;;;;;;;;;21.10;58.60;;;;;;1537270;76;737;-57
2023/02/22 07:49:25;;;;;;;;;;;21.10;56.90;;;;;;1549654;76;649;-57
2023/02/22 07:51:26;;;;;;;;;;;21.00;56.10;;;;;;1542272;76;2102;-58
2023/02/22 07:53:29;;;;;;;;;;;21.00;56.80;;;;;;1532715;76;818;-58
2023/02/22 07:55:31;;;;;;;;;;;21.00;56.70;;;;;;1541068;76;1938;-58
2023/02/22 07:57:33;;;;;;;;;;;21.00;56.20;;;;;;1534301;76;760;-58
2023/02/22 07:59:35;;;;;;;;;;;21.00;54.50;;;;;;1542451;76;764;-58
2023/02/22 08:01:36;;;;;;;;;;;21.00;55.10;;;;;;1543548;76;1136;-59
2023/02/22 08:03:38;;;;;;;;;;;21.00;55.50;;;;;;1536444;76;708;-59
2023/02/22 08:05:41;;;;;;;;;;;20.90;55.90;;;;;;1540874;76;1754;-60
2023/02/22 08:07:43;;;;;;;;;;;21.00;56.10;;;;;;1536003;76;722;-60
2023/02/22 08:09:45;;;;;;;;;;;21.00;56.20;;;;;;1537737;76;649;-59
2023/02/22 08:11:47;;;;;;;;;;;21.00;56.40;;;;;;1548664;76;1078;-59
2023/02/22 08:13:49;;;;;;;;;;;21.00;56.60;;;;;;1544053;76;793;-59
2023/02/22 08:15:52;;;;;;;;;;;21.00;56.90;;;;;;1537685;76;1940;-59
2023/02/22 08:17:54;;;;;;;;;;;21.10;56.80;;;;;;1542171;76;765;-59
2023/02/22 08:19:56;;;;;;;;;;;21.10;56.70;;;;;;1545989;76;1562;-58
2023/02/22 08:21:58;;;;;;;;;;;21.10;56.50;;;;;;1541263;76;1137;-59
2023/02/22 08:23:59;;;;;;;;;;;21.20;56.40;;;;;;1544429;76;791;-59
2023/02/22 08:26:05;;;;;;;;;;;21.20;56.40;;;;;;1541340;76;739;-59
2023/02/22 08:28:09;;;;;;;;;;;21.20;56.50;;;;;;1541414;76;651;-59
2023/02/22 08:30:12;;;;;;;;;;;21.20;56.70;;;;;;1539026;76;1195;-58
2023/02/22 08:32:15;;;;;;;;;;;21.40;57.00;;;;;;1540295;76;1104;-58
2023/02/22 08:34:17;;;;;;;;;;;21.30;57.10;;;;;;1546814;76;1933;-58
2023/02/22 08:36:19;;;;;;;;;;;21.40;57.10;;;;;;1544350;76;719;-58
2023/02/22 08:38:22;;;;;;;;;;;21.40;57.10;;;;;;1542401;76;749;-59
2023/02/22 08:40:24;;;;;;;;;;;21.40;57.10;;;;;;1532796;76;1240;-60
2023/02/22 08:42:26;;;;;;;;;;;21.50;57.30;;;;;;1538905;76;727;-60
2023/02/22 08:44:28;;;;;;;;;;;21.40;57.30;;;;;;1536180;76;739;-58
2023/02/22 08:46:30;;;;;;;;;;;21.40;57.10;;;;;;1538450;76;613;-59
2023/02/22 08:48:31;;;;;;;;;;;21.50;57.20;;;;;;1534429;76;1557;-59
2023/02/22 08:50:34;;;;;;;;;;;21.50;57.20;;;;;;1535047;76;1131;-59
2023/02/22 08:52:36;;;;;;;;;;;21.60;57.20;;;;;;1543722;76;951;-59
2023/02/22 08:54:38;;;;;;;;;;;21.50;57.20;;;;;;1529882;76;1916;-59
2023/02/22 08:56:40;;;;;;;;;;;21.60;57.00;;;;;;1544898;76;770;-60
2023/02/22 08:58:42;;;;;;;;;;;21.70;57.20;;;;;;1547128;76;690;-59
2023/02/22 09:00:44;;;;;;;;;;;21.60;57.10;;;;;;1542440;76;1149;-59
2023/02/22 09:02:45;;;;;;;;;;;21.70;57.20;;;;;;1538792;76;1569;-59
2023/02/22 09:04:48;;;;;;;;;;;21.70;56.60;;;;;;1538301;76;764;-60
2023/02/22 09:06:50;;;;;;;;;;;21.70;56.60;;;;;;1542483;76;750;-58
2023/02/22 09:08:52;;;;;;;;;;;21.70;56.50;;;;;;1551083;76;702;-58
2023/02/22 09:10:54;;;;;;;;;;;21.70;56.30;;;;;;1543969;76;1105;-59
2023/02/22 09:12:56;;;;;;;;;;;21.80;56.20;;;;;;1540130;76;887;-60
2023/02/22 09:14:58;;;;;;;;;;;21.80;56.30;;;;;;1540799;76;1943;-60
2023/02/22 09:17:00;;;;;;;;;;;21.80;56.40;;;;;;1542587;76;1576;-60
2023/02/22 09:19:01;;;;;;;;;;;21.80;56.30;;;;;;1543751;76;645;-58
2023/02/22 09:21:04;;;;;;;;;;;21.90;56.20;;;;;;1535682;76;1166;-59
2023/02/22 09:23:06;;;;;;;;;;;21.90;56.10;;;;;;1548018;76;712;-60
2023/02/22 09:25:08;;;;;;;;;;;21.90;56.20;;;;;;1547673;76;769;-60
2023/02/22 09:27:11;;;;;;;;;;;21.90;56.00;;;;;;1547192;76;682;-61
2023/02/22 09:29:12;;;;;;;;;;;21.90;56.00;;;;;;1538474;76;650;-64
2023/02/22 09:31:14;;;;;;;;;;;22.00;55.90;;;;;;1547225;75;1273;-62
2023/02/22 09:33:17;;;;;;;;;;;21.90;55.50;;;;;;1551152;76;721;-60
2023/02/22 09:35:19;;;;;;;;;;;22.00;55.80;;;;;;1536528;76;1920;-60
2023/02/22 09:37:20;;;;;;;;;;;22.00;56.40;;;;;;1544121;76;713;-60
2023/02/22 09:39:22;;;;;;;;;;;22.00;56.50;;;;;;1538236;76;667;-59
2023/02/22 09:41:31;;;;;;;;;;;22.00;56.50;;;;;;1542552;76;1137;-59
2023/02/22 09:43:34;;;;;;;;;;;22.10;56.40;;;;;;1536869;76;1853;-59
2023/02/22 09:45:38;;;;;;;;;;;22.10;56.40;;;;;;1547300;76;1578;-61
2023/02/22 09:47:40;;;;;;;;;;;22.20;56.30;;;;;;1534167;76;670;-60
2023/02/22 09:49:50;;;;;;;;;;;22.20;56.30;;;;;;1540567;76;698;-60
2023/02/22 09:51:56;;;;;;;;;;;22.20;56.10;;;;;;1541200;76;1233;-60
2023/02/22 09:53:59;;;;;;;;;;;22.20;56.30;;;;;;1536404;76;718;-60
2023/02/22 09:56:02;;;;;;;;;;;22.20;56.30;;;;;;1540400;76;1931;-61
2023/02/22 09:58:22;;;;;;;;;;;22.20;56.30;;;;;;1544789;76;1589;-61
2023/02/22 10:00:28;;;;;;;;;;;22.30;56.40;;;;;;1537708;76;1104;-61
2023/02/22 10:02:31;;;;;;;;;;;22.20;56.40;;;;;;1532915;76;1980;-60
2023/02/22 10:04:40;;;;;;;;;;;22.20;56.50;;;;;;1538344;76;697;-60
2023/02/22 10:06:42;;;;;;;;;;;22.20;56.50;;;;;;1542186;76;685;-60
2023/02/22 10:08:44;;;;;;;;;;;22.20;56.40;;;;;;1543273;76;690;-61
2023/02/22 10:10:51;;;;;;;;;;;22.20;56.30;;;;;;1533353;76;1135;-61
2023/02/22 10:13:09;;;;;;;;;;;22.20;56.20;;;;;;1544550;76;1461;-60
2023/02/22 10:15:29;;;;;;;;;;;22.10;56.40;;;;;;1535512;76;1924;-60
2023/02/22 10:17:32;;;;;;;;;;;22.20;56.40;;;;;;1532623;76;688;-61
2023/02/22 10:19:52;;;;;;;;;;;22.20;56.40;;;;;;1536091;76;711;-61
2023/02/22 10:22:06;;;;;;;;;;;22.20;56.30;;;;;;1542381;76;1123;-62
2023/02/22 10:24:19;;;;;;;;;;;22.20;56.40;;;;;;1549122;76;702;-61
2023/02/22 10:26:22;;;;;;;;;;;22.20;56.30;;;;;;1543157;76;1514;-62
2023/02/22 10:28:29;;;;;;;;;;;22.30;56.20;;;;;;1538928;76;674;-60
2023/02/22 10:30:33;;;;;;;;;;;22.40;56.00;;;;;;1550055;76;1163;-62
2023/02/22 10:32:36;;;;;;;;;;;22.30;55.90;;;;;;1531079;76;1727;-60
2023/02/22 10:34:40;;;;;;;;;;;22.40;55.80;;;;;;1538037;76;1389;-60
2023/02/22 10:36:43;;;;;;;;;;;22.40;55.70;;;;;;1536752;76;1944;-61
2023/02/22 10:38:47;;;;;;;;;;;22.40;55.70;;;;;;1541238;76;1871;-60
2023/02/22 10:41:07;;;;;;;;;;;22.40;55.70;;;;;;1537891;76;1768;-59
2023/02/22 10:43:13;;;;;;;;;;;22.40;55.70;;;;;;1547263;76;875;-60
2023/02/22 10:45:17;;;;;;;;;;;22.40;55.80;;;;;;1541769;76;1417;-61
2023/02/22 10:47:19;;;;;;;;;;;22.30;55.70;;;;;;1531466;76;1579;-61
2023/02/22 10:49:21;;;;;;;;;;;22.30;55.70;;;;;;1538973;76;610;-61
2023/02/22 10:51:23;;;;;;;;;;;22.40;55.70;;;;;;1532167;76;1126;-60
2023/02/22 10:53:26;;;;;;;;;;;22.30;57.20;;;;;;1545570;76;698;-59
2023/02/22 10:55:28;;;;;;;;;;;22.30;57.00;;;;;;1540390;76;1928;-60
2023/02/22 10:57:31;;;;;;;;;;;22.20;56.60;;;;;;1538863;76;706;-60
2023/02/22 10:59:37;;;;;;;;;;;22.30;56.70;;;;;;1535860;76;675;-61
2023/02/22 11:01:41;;;;;;;;;;;22.20;56.70;;;;;;1540437;76;1156;-62
2023/02/22 11:03:44;;;;;;;;;;;22.10;56.70;;;;;;1542756;76;664;-61
2023/02/22 11:05:46;;;;;;;;;;;22.10;56.70;;;;;;1542605;76;665;-62
2023/02/22 11:07:48;;;;;;;;;;;22.20;56.50;;;;;;1540426;76;721;-62
2023/02/22 11:09:51;;;;;;;;;;;22.20;56.30;;;;;;1541617;76;1606;-64
2023/02/22 11:12:09;;;;;;;;;;;22.20;55.40;;;;;;1536033;76;1128;-61
2023/02/22 11:14:11;;;;;;;;;;;22.30;55.00;;;;;;1541546;76;690;-62
2023/02/22 11:16:31;;;;;;;;;;;22.20;55.20;;;;;;1538296;76;1924;-61
2023/02/22 11:18:33;;;;;;;;;;;22.20;55.00;;;;;;1535733;76;687;-66
2023/02/22 11:20:37;;;;;;;;;;;22.20;55.40;;;;;;1541759;76;1205;-63
2023/02/22 11:22:39;;;;;;;;;;;22.20;55.30;;;;;;1544622;76;1587;-63
2023/02/22 11:24:53;;;;;;;;;;;22.20;55.30;;;;;;1544374;76;756;-64
2023/02/22 11:26:56;;;;;;;;;;;22.20;55.20;;;;;;1537426;76;569;-60
2023/02/22 11:29:00;;;;;;;;;;;22.20;55.20;;;;;;1536781;76;692;-62
2023/02/22 11:31:21;;;;;;;;;;;22.20;55.20;;;;;;1542463;76;1479;-60
2023/02/22 11:33:23;;;;;;;;;;;22.20;55.30;;;;;;1541106;76;671;-60
2023/02/22 11:35:30;;;;;;;;;;;22.20;55.30;;;;;;1536671;76;1935;-61
2023/02/22 11:37:33;;;;;;;;;;;22.20;55.40;;;;;;1546762;76;1560;-62
2023/02/22 11:39:37;;;;;;;;;;;22.20;55.40;;;;;;1542021;76;673;-62
2023/02/22 11:41:38;;;;;;;;;;;22.10;55.50;;;;;;1545525;76;1185;-61
2023/02/22 11:43:40;;;;;;;;;;;22.10;55.50;;;;;;1545332;76;798;-61
2023/02/22 11:46:02;;;;;;;;;;;22.10;55.70;;;;;;1552178;76;695;-62
2023/02/22 11:48:04;;;;;;;;;;;22.10;55.70;;;;;;1521214;78;1120;-61
2023/02/22 11:50:08;;;;;;;;;;;22.10;55.70;;;;;;1503826;78;645;-63
2023/02/22 11:52:18;;;;;;;;;;;22.10;55.60;;;;;;1509348;78;1453;-63
2023/02/22 11:54:30;;;;;;;;;;;22.10;55.60;;;;;;1533516;76;970;-61
2023/02/22 11:56:45;;;;;;;;;;;22.10;55.50;;;;;;1535740;76;1992;-60
2023/02/22 11:58:52;;;;;;;;;;;22.10;55.50;;;;;;1538361;76;701;-60
2023/02/22 12:00:56;;;;;;;;;;;22.10;55.50;;;;;;1543729;76;1162;-61
2023/02/22 12:03:09;;;;;;;;;;;22.20;55.50;;;;;;1538540;76;621;-63
2023/02/22 12:05:13;;;;;;;;;;;22.10;55.40;;;;;;1540401;76;1654;-62
2023/02/22 12:07:19;;;;;;;;;;;22.10;55.50;;;;;;1534334;76;693;-63
2023/02/22 12:09:31;;;;;;;;;;;22.10;55.40;;;;;;1544266;76;1950;-66
2023/02/22 12:11:43;;;;;;;;;;;22.20;55.40;;;;;;1541850;76;1886;-62
2023/02/22 12:13:55;;;;;;;;;;;22.10;55.40;;;;;;1540532;76;1891;-62
2023/02/22 12:15:58;;;;;;;;;;;22.10;55.30;;;;;;1534535;76;1949;-62